• Join FlightAware (Why Join?)
  • Login
  • US Flag 
05:49PM EDT


 

Airport Tracker/Info


-or-


 

Live Flight TrackerFlight Track Log ✈ AWE3397 ✈ 17-Sep-2013 ✈ KPHL - KMSP

Flight Track Log - Related Links

Times and Time Zones

All times are in EDT time to prevent confusion due to time zone crossing. See the AWE3397 flight status page for this flight to view local times or setup timezone preferences in your user account.

Time Position Orientation Groundspeed Altitude Reporting Facility
EDT Latitude Longitude Course Direction KTS MPH feet Rate Location/Type
08:06AM 39.8833 -75.2167 326° Northwest 165 190 1,000  Level Philadelphia TRACON
08:06AM 39.8833 -75.1833 90° East 155 178 2,300 2,100 Climbing Philadelphia TRACON
08:07AM 39.9167 -75.1167 57° Northeast 264 304 4,600 2,700 Climbing Philadelphia TRACON
08:08AM 39.9667 -75.1500 333° Northwest 260 299 7,800 2,700 Climbing Philadelphia TRACON
08:09AM 40.0472 -75.6998 281° West  Level Estimated
08:09AM 40.0333 -75.2500 311° West 286 329 10,000  Level Philadelphia TRACON
08:10AM 40.0907 -75.8149 285° West  Level Estimated
08:10AM 40.0833 -75.3333 308° West 300 345 10,300  Level Philadelphia TRACON
08:11AM 40.1718 -75.8872 326° Northwest  Level FlightAware Approximate
08:11AM 40.1283 -75.4131 306° West 307 353 11,900  Level New York Center
08:12AM 40.1792 -75.4981 308° West 327 376 13,000 1,440 Climbing New York Center
08:13AM 40.2383 -75.5864 311° West 320 368 14,900 2,040 Climbing New York Center
08:14AM 40.2972 -75.6747 311° West 320 368 17,100 1,080 Climbing New York Center
08:15AM 40.3561 -75.7581 313° West 326 375 17,100  Level New York Center
08:16AM 40.4147 -75.8494 310° West 326 375 17,200 660 Climbing New York Center
08:17AM 40.4478 -75.9528 293° West 336 387 18,500 1,380 Climbing New York Center
08:18AM 40.4725 -76.0994 283° West 336 387 20,000 1,680 Climbing New York Center
08:19AM 40.4958 -76.2267 284° West 348 400 21,900 2,040 Climbing New York Center
08:20AM 40.5172 -76.3539 283° West 355 409 24,100 1,920 Climbing New York Center
08:21AM 40.5400 -76.4842 283° West 366 421 25,800 1,500 Climbing New York Center
08:22AM 40.5625 -76.6228 282° West 371 427 27,200 1,320 Climbing New York Center
08:23AM 40.5847 -76.7614 282° West 382 440 28,500 1,260 Climbing New York Center
08:24AM 40.6086 -76.9028 283° West 392 451 29,800 1,020 Climbing New York Center
08:25AM 40.6311 -77.0306 283° West 397 457 30,600 960 Climbing New York Center
08:26AM 40.6550 -77.1725 283° West 397 457 31,800 1,200 Climbing New York Center
08:27AM 40.6814 -77.3336 282° West 397 457 33,000 1,140 Climbing New York Center
08:28AM 40.7047 -77.4756 282° West 397 457 34,100 1,020 Climbing New York Center
08:29AM 40.7261 -77.6147 282° West 397 457 35,100 540 Climbing New York Center
08:31AM 40.7664 -77.8747 282° West 401 461 35,800 300 Climbing Cleveland Center
08:32AM 40.7900 -78.0194 282° West 403 464 36,000 60 Climbing Cleveland Center
08:33AM 40.8172 -78.1925 282° West 404 465 36,000  Level Cleveland Center
08:34AM 40.8400 -78.3364 282° West 403 464 36,000  Level Cleveland Center
08:35AM 40.8600 -78.4725 281° West 410 472 36,000  Level Cleveland Center
08:37AM 40.8808 -78.6189 281° West 411 473 36,000  Level Cleveland Center
08:38AM 40.9081 -78.7950 282° West 418 481 36,000  Level Cleveland Center
08:39AM 40.9308 -78.9392 282° West 404 465 36,000  Level Cleveland Center
08:40AM 40.9656 -79.0794 288° West 402 463 36,000  Level Cleveland Center
08:41AM 41.0036 -79.2186 290° West 404 465 36,000  Level Cleveland Center
08:42AM 41.0400 -79.3564 289° West 399 459 36,000  Level Cleveland Center
08:43AM 41.0769 -79.4953 289° West 401 461 36,000  Level Cleveland Center
08:44AM 41.1211 -79.6608 290° West 400 460 36,000  Level Cleveland Center
08:45AM 41.1556 -79.7914 289° West 403 464 36,000  Level Cleveland Center
08:46AM 41.1925 -79.9328 289° West 406 467 36,000  Level Cleveland Center
08:47AM 41.2317 -80.0844 289° West 409 471 36,000  Level Cleveland Center
08:48AM 41.2681 -80.2250 289° West 407 468 36,000  Level Cleveland Center
08:49AM 41.3119 -80.3906 289° West 407 468 36,000  Level Cleveland Center
08:50AM 41.3481 -80.5347 288° West 406 467 36,000  Level Cleveland Center
08:51AM 41.3844 -80.6781 289° West 406 467 36,000  Level Cleveland Center
08:52AM 41.4208 -80.8206 289° West 403 464 36,000  Level Cleveland Center
08:53AM 41.4556 -80.9653 288° West 406 467 36,000  Level Cleveland Center
08:54AM 41.4986 -81.1333 289° West 409 471 36,000  Level Cleveland Center
08:55AM 41.5331 -81.2758 288° West 404 465 36,000  Level Cleveland Center
08:56AM 41.5683 -81.4189 288° West 405 466 36,000  Level Cleveland Center
08:57AM 41.6036 -81.5606 288° West 403 464 36,000  Level Cleveland Center
08:58AM 41.6392 -81.7036 288° West 405 466 36,000  Level Cleveland Center
08:59AM 41.6789 -81.8725 288° West 407 468 36,000  Level Cleveland Center
09:00AM 41.7139 -82.0167 288° West 406 467 36,000  Level Cleveland Center
09:01AM 41.7444 -82.1453 288° West 404 465 36,000  Level Cleveland Center
09:02AM 41.7844 -82.3175 287° West 404 465 36,000  Level Cleveland Center
09:03AM 41.8178 -82.4594 288° West 400 460 36,000  Level Cleveland Center
09:04AM 41.8528 -82.6019 288° West 404 465 36,000  Level Cleveland Center
09:05AM 41.8844 -82.7464 286° West 404 465 36,000  Level Cleveland Center
09:07AM 41.9178 -82.8881 288° West 401 461 36,000  Level Cleveland Center
09:08AM 41.9506 -83.0319 287° West 402 463 36,000  Level Cleveland Center
09:09AM 41.9839 -83.1783 287° West 407 468 36,000  Level Cleveland Center
09:10AM 42.0206 -83.3428 287° West 406 467 36,000  Level Cleveland Center
09:11AM 42.0569 -83.4886 289° West 407 468 36,000  Level Cleveland Center
09:12AM 42.1053 -83.6369 294° West 400 460 36,000  Level Cleveland Center
09:13AM 42.1400 -83.7806 288° West 400 460 36,000  Level Cleveland Center
09:14AM 42.1747 -83.9244 288° West 402 463 36,000  Level Cleveland Center
09:15AM 42.2092 -84.0672 288° West 400 460 36,000  Level Cleveland Center
09:16AM 42.2428 -84.2111 288° West 401 461 36,000  Level Cleveland Center
09:17AM 42.2847 -84.3825 288° West 403 464 36,000  Level Cleveland Center
09:18AM 42.3147 -84.5136 287° West 402 463 36,000  Level Chicago Center
09:19AM 42.3467 -84.6547 287° West 395 455 36,000  Level Chicago Center
09:20AM 42.3864 -84.8264 287° West 399 459 36,000  Level Chicago Center
09:21AM 42.4192 -84.9683 287° West 397 457 36,000  Level Chicago Center
09:22AM 42.4514 -85.1133 287° West 401 461 36,000  Level Chicago Center
09:23AM 42.4842 -85.2558 287° West 399 459 36,000  Level Chicago Center
09:24AM 42.5161 -85.3983 287° West 395 455 36,000  Level Chicago Center
09:25AM 42.5475 -85.5422 287° West 398 458 36,000  Level Chicago Center
09:26AM 42.5783 -85.6867 286° West 398 458 36,000  Level Chicago Center
09:27AM 42.6161 -85.8589 287° West 395 455 36,000  Level Chicago Center
09:28AM 42.6469 -86.0028 286° West 394 453 36,000  Level Chicago Center
09:29AM 42.6978 -86.1356 298° West 393 452 36,000  Level Chicago Center
09:30AM 42.7475 -86.2667 297° West 389 448 36,000  Level Chicago Center
09:31AM 42.7981 -86.3994 297° West 385 443 36,000  Level Chicago Center
09:32AM 42.8475 -86.5281 298° West 387 445 36,000  Level Chicago Center
09:33AM 42.8964 -86.6575 297° West 385 443 36,000  Level Chicago Center
09:34AM 42.9558 -86.8147 297° West 387 445 36,000  Level Chicago Center
09:35AM 43.0056 -86.9464 297° West 390 449 36,000  Level Chicago Center
09:37AM 43.0547 -87.0792 297° West 391 450 36,000  Level Chicago Center
09:38AM 43.1044 -87.2117 297° West 392 451 36,000  Level Chicago Center
09:39AM 43.1528 -87.3433 297° West 389 448 36,000  Level Chicago Center
09:40AM 43.2028 -87.4758 297° West 390 449 36,000  Level Chicago Center
09:41AM 43.2617 -87.6342 297° West 390 449 36,000  Level Chicago Center
09:42AM 43.3106 -87.7678 297° West 391 450 36,000  Level Chicago Center
09:43AM 43.3589 -87.9003 297° West 391 450 36,000  Level Chicago Center
09:44AM 43.4050 -88.0358 295° West 393 452 36,000  Level Chicago Center
09:45AM 43.4522 -88.1703 296° West 392 451 36,000  Level Chicago Center
09:46AM 43.5006 -88.3044 296° West 393 452 36,000  Level Chicago Center
09:47AM 43.5597 -88.4683 297° West 393 452 36,000  Level Chicago Center
09:48AM 43.6119 -88.6053 298° West 400 460 36,000  Level Chicago Center
09:49AM 43.6611 -88.7431 296° West 402 463 36,000  Level Chicago Center
09:50AM 43.7136 -88.8906 296° West 400 460 36,000  Level Chicago Center
09:51AM 43.7572 -89.0239 294° West 392 451 36,000  Level Chicago Center
09:52AM 43.8031 -89.1597 295° West 391 450 36,000  Level Chicago Center
09:53AM 43.8508 -89.2958 296° West 395 455 36,000  Level Chicago Center
09:54AM 43.9061 -89.4611 295° West 398 458 36,000  Level Chicago Center
09:55AM 43.9536 -89.5992 296° West 401 461 36,000  Level Chicago Center
09:56AM 44.0000 -89.7361 295° West 398 458 36,000 -540 Level Chicago Center
09:57AM 44.0469 -89.8753 295° West 401 461 34,900 -1,020 Descending Chicago Center
09:58AM 44.0997 -90.0047 300° West 395 455 34,000 -480 Descending Chicago Center
09:59AM 44.1819 -90.1547 307° West 407 468 34,000  Level Chicago Center
10:00AM 44.2533 -90.2831 308° West 418 481 34,000 -480 Level Chicago Center
10:01AM 44.3114 -90.4128 302° West 411 473 33,100 -1,020 Descending Chicago Center
10:02AM 44.3669 -90.5500 300° West 409 471 32,000 -1,080 Descending Chicago Center
10:03AM 44.4239 -90.6900 300° West 415 478 30,900 -1,200 Descending Chicago Center
10:04AM 44.4950 -90.8692 299° West 428 493 29,600 -1,440 Descending Chicago Center
10:06AM 44.5536 -91.0206 299° West 437 503 28,000 -1,860 Descending Chicago Center
10:07AM 44.6103 -91.1672 299° West 439 505 25,800 -2,100 Descending Chicago Center
10:08AM 44.6661 -91.3119 299° West 435 501 23,700 -2,220 Descending Chicago Center
10:08AM 44.7083 -91.4033 303° West 426 490 22,100 -2,220 Descending Minneapolis Center
10:09AM 44.7614 -91.5411 299° West 411 473 20,000 -2,040 Descending Minneapolis Center
10:10AM 44.8139 -91.6742 299° West 397 457 18,000 -1,800 Descending Minneapolis Center
10:11AM 44.8644 -91.8069 298° West 389 448 16,300 -1,800 Descending Minneapolis Center
10:12AM 44.9153 -91.9367 299° West 381 438 14,400 -2,040 Descending Minneapolis Center
10:13AM 44.9714 -92.0847 298° West 361 415 12,200 -1,680 Descending Minneapolis Center
10:14AM 45.0183 -92.2081 298° West 359 413 11,000 -600 Descending Minneapolis Center
10:15AM 45.0422 -92.3372 285° West 350 403 11,000  Level Minneapolis Center
10:16AM 45.0211 -92.4681 257° West 342 394 11,000  Level Minneapolis Center
10:17AM 45.0006 -92.5983 257° West 342 394 11,000  Level Minneapolis Center
10:19AM 44.9794 -92.7281 257° West 341 392 11,000  Level Minneapolis Center
10:20AM 44.9544 -92.8844 257° West 342 394 11,000 -360 Level Minneapolis Center
10:21AM 44.9347 -93.0056 257° West 322 371 10,300 -1,140 Descending Minneapolis Center
10:22AM 44.9447 -93.1094 278° West 293 337 8,700 -1,620 Descending Minneapolis Center
10:23AM 44.9958 -93.1975 309° West 293 337 7,100 -1,320 Descending Minneapolis Center
10:24AM 45.0464 -93.2847 309° West 290 334 6,000 -1,320 Descending Minneapolis Center
10:25AM 45.0592 -93.3947 279° West 256 295 4,400 -1,380 Descending Minneapolis Center
10:26AM 45.0058 -93.3836 172° South 207 238 3,200 -780 Descending Minneapolis Center
10:27AM 44.9600 -93.3400 146° Southeast 197 227 2,900 -540 Descending Minneapolis Center
10:28AM 44.9250 -93.2958 138° Southeast 165 190 2,100 -720 Descending Minneapolis Center
10:29AM 44.9069 -93.2528 121° Southeast 129 148 1,500 -600 Descending Minneapolis Center